Time;durP1;ratioP1;P1;durP2;ratioP2;P2;SDS_P1;SDS_P2;PMS_P1;PMS_P2;Temp;Humidity;BMP_temperature;BMP_pressure;BME280_temperature;BME280_humidity;BME280_pressure;Samples;Min_cycle;Max_cycle;Signal;HPM_P1;HPM_P2
2022/11/10 00:00:53;;;;;;;3.13;0.50;;;23.40;99.90;;;;;;5063473;28;20259;-79
2022/11/10 00:03:27;;;;;;;1.27;0.55;;;23.50;99.90;;;;;;5065657;28;20570;-81
2022/11/10 00:05:59;;;;;;;2.00;0.52;;;23.40;99.90;;;;;;5066643;28;20204;-80
2022/11/10 00:08:30;;;;;;;2.30;0.50;;;23.50;99.90;;;;;;5070116;28;20253;-80
2022/11/10 00:11:03;;;;;;;1.52;0.70;;;23.50;99.90;;;;;;5067713;28;20204;-80
2022/11/10 00:16:59;;;;;;;1.73;0.60;;;23.60;99.90;;;;;;5069632;28;20302;-80
2022/11/10 00:19:13;;;;;;;2.63;0.40;;;23.70;99.90;;;;;;5072065;28;20226;-78
2022/11/10 00:21:46;;;;;;;2.75;0.55;;;23.60;99.90;;;;;;5062901;28;20211;-79
2022/11/10 00:24:17;;;;;;;1.92;0.57;;;23.50;99.90;;;;;;5069653;28;20196;-79
2022/11/10 00:26:48;;;;;;;3.33;0.47;;;23.60;99.90;;;;;;5065940;28;20212;-80
2022/11/10 00:29:19;;;;;;;2.05;0.40;;;23.70;99.90;;;;;;5065955;28;20196;-80
2022/11/10 00:31:50;;;;;;;1.63;0.50;;;23.80;99.90;;;;;;5064770;28;20219;-80
2022/11/10 00:34:20;;;;;;;3.40;0.40;;;23.90;99.90;;;;;;5065130;28;20221;-80
2022/11/10 00:36:53;;;;;;;1.90;0.60;;;23.90;99.90;;;;;;5057453;28;20192;-79
2022/11/10 00:39:25;;;;;;;1.15;0.45;;;23.90;99.90;;;;;;5064966;28;20231;-79
2022/11/10 00:41:56;;;;;;;1.90;0.40;;;24.00;99.90;;;;;;5070635;28;20313;-79
2022/11/10 00:44:27;;;;;;;1.60;0.60;;;24.10;99.90;;;;;;5070234;28;20196;-80
2022/11/10 00:46:58;;;;;;;1.55;0.57;;;24.10;99.90;;;;;;5074978;28;20225;-79
2022/11/10 00:49:29;;;;;;;2.55;0.35;;;24.10;99.90;;;;;;5081592;28;20234;-79
2022/11/10 00:52:02;;;;;;;3.05;0.55;;;24.00;99.90;;;;;;5076997;28;20236;-80
2022/11/10 00:54:32;;;;;;;1.75;0.70;;;24.00;99.90;;;;;;5069940;28;20192;-79
2022/11/10 00:57:03;;;;;;;2.40;0.47;;;23.90;99.90;;;;;;5067204;28;20217;-80
2022/11/10 00:59:34;;;;;;;1.00;0.40;;;23.90;99.90;;;;;;5070023;28;20306;-79
2022/11/10 01:02:05;;;;;;;1.08;0.40;;;23.90;99.90;;;;;;5069889;28;20267;-80
2022/11/10 01:04:36;;;;;;;3.38;0.55;;;24.00;99.90;;;;;;5074531;28;20198;-80
2022/11/10 01:07:09;;;;;;;1.58;0.52;;;24.00;99.90;;;;;;5072262;28;20197;-80
2022/11/10 01:09:39;;;;;;;0.70;0.32;;;23.90;99.90;;;;;;5072895;28;20196;-80
2022/11/10 01:12:10;;;;;;;1.38;0.40;;;23.90;99.90;;;;;;5070204;28;20192;-80
2022/11/10 01:14:45;;;;;;;2.95;0.52;;;23.70;99.90;;;;;;5070718;28;20259;-79
2022/11/10 01:17:16;;;;;;;2.95;0.40;;;23.80;99.90;;;;;;5079619;28;20370;-80
2022/11/10 01:19:46;;;;;;;1.92;0.50;;;23.90;99.90;;;;;;5070427;28;20232;-79
2022/11/10 01:22:19;;;;;;;2.42;0.50;;;23.80;99.90;;;;;;5063459;28;20222;-79
2022/11/10 01:24:50;;;;;;;1.88;0.43;;;24.00;99.90;;;;;;5064922;28;20216;-80
2022/11/10 01:27:21;;;;;;;1.83;0.40;;;24.00;99.90;;;;;;5068261;28;20224;-79
2022/11/10 01:29:51;;;;;;;1.42;0.60;;;24.10;99.90;;;;;;5065639;28;20222;-80
2022/11/10 01:32:22;;;;;;;3.33;0.63;;;24.20;99.90;;;;;;5073769;28;20192;-80
2022/11/10 01:34:53;;;;;;;2.33;0.50;;;24.40;99.90;;;;;;5071786;28;20224;-80
2022/11/10 01:37:26;;;;;;;1.38;0.50;;;24.40;99.90;;;;;;5065185;28;20674;-79
2022/11/10 01:39:57;;;;;;;6.22;0.60;;;24.40;99.90;;;;;;5071650;28;20246;-79
2022/11/10 01:42:31;;;;;;;1.00;0.45;;;24.40;99.90;;;;;;5092704;28;20219;-80
2022/11/10 01:45:45;;;;;;;2.17;0.50;;;24.30;99.90;;;;;;5081314;28;20217;-79
2022/11/10 01:48:20;;;;;;;3.92;0.68;;;24.50;99.90;;;;;;5084638;28;20195;-79
2022/11/10 01:50:51;;;;;;;1.88;0.40;;;24.30;99.90;;;;;;5080387;28;20554;-78
2022/11/10 01:53:27;;;;;;;2.03;0.60;;;24.10;99.90;;;;;;5087596;28;20227;-78
2022/11/10 01:55:59;;;;;;;2.38;0.40;;;24.10;99.90;;;;;;5091318;28;20209;-79
2022/11/10 01:58:38;;;;;;;2.13;0.63;;;24.30;99.90;;;;;;5092743;28;20196;-79
2022/11/10 02:01:10;;;;;;;2.90;0.50;;;24.40;99.90;;;;;;5094790;28;20231;-78
2022/11/10 02:03:45;;;;;;;2.20;0.63;;;24.40;99.90;;;;;;5092010;28;20638;-79
2022/11/10 02:06:17;;;;;;;4.03;0.80;;;24.50;99.90;;;;;;5093624;28;20282;-80
2022/11/10 02:08:51;;;;;;;1.98;0.45;;;24.40;99.90;;;;;;5090757;28;20199;-79
2022/11/10 02:11:23;;;;;;;4.28;0.50;;;24.30;99.90;;;;;;5086716;28;20194;-80
2022/11/10 02:13:54;;;;;;;6.03;0.90;;;24.40;99.90;;;;;;5088626;28;20306;-80
2022/11/10 02:16:25;;;;;;;4.47;0.70;;;24.60;99.90;;;;;;5084362;28;20191;-79
2022/11/10 02:18:56;;;;;;;7.90;0.82;;;24.50;99.90;;;;;;5089940;28;20188;-79
2022/11/10 02:21:29;;;;;;;2.13;0.40;;;24.40;99.90;;;;;;5093239;28;20658;-80
2022/11/10 02:24:00;;;;;;;3.35;0.60;;;24.50;99.90;;;;;;5106591;28;20223;-80
2022/11/10 02:26:31;;;;;;;1.85;0.50;;;24.50;99.90;;;;;;5074495;28;20196;-80
2022/11/10 02:29:02;;;;;;;5.00;0.57;;;24.50;99.90;;;;;;5073853;28;20196;-81
2022/11/10 02:31:33;;;;;;;1.40;0.50;;;24.50;99.90;;;;;;5073086;28;20204;-80
2022/11/10 02:34:03;;;;;;;1.58;0.75;;;24.50;99.90;;;;;;5083216;28;20246;-81
2022/11/10 02:36:36;;;;;;;4.10;0.50;;;24.70;99.90;;;;;;5081976;28;20199;-79
2022/11/10 02:39:08;;;;;;;3.00;0.47;;;24.90;99.90;;;;;;5082118;28;20195;-81
2022/11/10 02:41:39;;;;;;;6.60;0.60;;;24.90;99.90;;;;;;5092809;28;20270;-81
2022/11/10 02:44:11;;;;;;;2.03;0.40;;;25.00;99.90;;;;;;5092656;28;20318;-80
2022/11/10 02:46:42;;;;;;;3.00;0.60;;;24.80;99.90;;;;;;5088190;28;20229;-80
2022/11/10 02:49:13;;;;;;;2.10;0.60;;;24.90;99.90;;;;;;5078877;28;20537;-80
2022/11/10 02:51:46;;;;;;;6.22;0.55;;;25.00;99.90;;;;;;5087367;28;20249;-80
2022/11/10 02:54:17;;;;;;;3.58;1.88;;;25.00;99.90;;;;;;5091440;28;20207;-81
2022/11/10 02:56:48;;;;;;;1.30;0.40;;;25.00;99.90;;;;;;5093506;28;20328;-81
2022/11/10 02:59:19;;;;;;;1.13;0.50;;;25.00;99.90;;;;;;5095729;28;20222;-81
2022/11/10 03:01:50;;;;;;;1.90;0.50;;;25.20;99.90;;;;;;5098638;28;20312;-81
2022/11/10 03:04:21;;;;;;;2.47;0.50;;;25.40;99.90;;;;;;5101443;28;20282;-81
2022/11/10 03:06:54;;;;;;;3.05;0.45;;;25.60;99.90;;;;;;5090235;28;20191;-80
2022/11/10 03:09:24;;;;;;;2.40;0.40;;;25.70;99.90;;;;;;5074778;28;20287;-80
2022/11/10 03:11:55;;;;;;;1.23;0.40;;;25.60;99.90;;;;;;5086830;28;20203;-80
2022/11/10 03:14:26;;;;;;;1.30;0.50;;;25.60;99.90;;;;;;5093683;28;20687;-80
2022/11/10 03:16:57;;;;;;;1.63;0.40;;;25.80;99.90;;;;;;5092896;28;20232;-80
2022/11/10 03:19:29;;;;;;;2.25;0.55;;;25.90;99.90;;;;;;5098843;28;20202;-80
2022/11/10 03:22:03;;;;;;;1.17;0.40;;;26.10;99.90;;;;;;5089487;28;20215;-80
2022/11/10 03:24:33;;;;;;;2.13;0.50;;;26.10;99.90;;;;;;5081141;28;20259;-80
2022/11/10 03:27:04;;;;;;;2.13;0.60;;;26.00;99.90;;;;;;5084125;28;20275;-80
2022/11/10 03:29:35;;;;;;;2.08;0.30;;;26.00;99.90;;;;;;5093503;28;20195;-79
2022/11/10 03:32:06;;;;;;;1.60;0.50;;;25.90;99.90;;;;;;5095157;28;20206;-80
2022/11/10 03:34:37;;;;;;;1.75;0.47;;;25.90;99.90;;;;;;5096159;28;20195;-80
2022/11/10 03:37:09;;;;;;;3.45;0.50;;;25.90;99.90;;;;;;5093336;28;20203;-80
2022/11/10 03:39:42;;;;;;;1.20;0.45;;;26.10;99.90;;;;;;5092806;28;20678;-79
2022/11/10 03:42:12;;;;;;;1.17;0.40;;;26.10;99.90;;;;;;5092442;28;20231;-80
2022/11/10 03:44:43;;;;;;;1.75;0.45;;;26.10;99.90;;;;;;5091961;28;20199;-80
2022/11/10 03:47:14;;;;;;;3.83;0.60;;;26.00;99.90;;;;;;5093423;28;20199;-79
2022/11/10 03:49:45;;;;;;;1.50;0.40;;;25.90;99.90;;;;;;5093233;28;20265;-80
2022/11/10 03:52:18;;;;;;;1.95;0.50;;;25.80;99.90;;;;;;5112230;28;20183;-81
2022/11/10 03:54:48;;;;;;;0.70;0.45;;;26.00;99.90;;;;;;5108854;28;20197;-80
2022/11/10 03:57:20;;;;;;;1.08;0.32;;;26.10;99.90;;;;;;5111970;28;20198;-80
2022/11/10 03:59:50;;;;;;;0.75;0.22;;;26.20;99.90;;;;;;5112130;28;20195;-79
2022/11/10 04:02:21;;;;;;;0.98;0.30;;;26.40;99.90;;;;;;5098800;28;20573;-80
2022/11/10 04:10:27;;;;;;;0.65;0.22;;;26.60;99.90;;;;;;5071527;28;20297;-80
2022/11/10 04:15:45;;;;;;;0.88;0.43;;;26.30;99.90;;;;;;5098474;28;20240;-80
2022/11/10 04:18:23;;;;;;;1.85;0.50;;;26.30;99.90;;;;;;5095363;28;20195;-79
2022/11/10 04:20:55;;;;;;;2.50;0.40;;;26.30;99.90;;;;;;5092208;28;20219;-80
2022/11/10 04:23:30;;;;;;;1.35;0.30;;;26.70;99.90;;;;;;5087283;28;20195;-81
2022/11/10 04:28:56;;;;;;;1.38;0.60;;;26.80;97.70;;;;;;5096212;28;20219;-79
2022/11/10 04:31:29;;;;;;;2.38;0.40;;;26.90;98.00;;;;;;5097976;28;20201;-79
2022/11/10 04:34:00;;;;;;;2.38;0.50;;;26.90;99.30;;;;;;5091860;28;20199;-79
2022/11/10 04:36:32;;;;;;;2.00;0.40;;;27.00;98.90;;;;;;5091099;28;20199;-79
2022/11/10 04:39:05;;;;;;;2.05;0.50;;;27.10;99.70;;;;;;5091986;28;20206;-79
2022/11/10 04:41:36;;;;;;;2.08;0.47;;;27.20;99.90;;;;;;5092479;28;20230;-80
2022/11/10 04:44:07;;;;;;;2.55;0.40;;;27.30;99.40;;;;;;5091487;28;20282;-80
2022/11/10 04:46:39;;;;;;;1.48;0.50;;;27.10;98.20;;;;;;5092067;28;20658;-80
2022/11/10 04:49:10;;;;;;;1.27;0.40;;;26.80;98.30;;;;;;5086190;28;20196;-79
2022/11/10 04:51:42;;;;;;;1.90;0.40;;;26.90;97.60;;;;;;5080413;28;20213;-79
2022/11/10 04:54:15;;;;;;;1.75;0.50;;;27.00;98.10;;;;;;5091528;28;20215;-80
2022/11/10 04:56:46;;;;;;;1.40;0.35;;;27.00;96.50;;;;;;5090432;28;20191;-80
2022/11/10 04:59:18;;;;;;;1.73;0.60;;;27.10;97.10;;;;;;5090717;28;20566;-80
2022/11/10 05:01:49;;;;;;;1.35;0.40;;;27.30;95.80;;;;;;5090664;28;20713;-80
2022/11/10 05:04:19;;;;;;;1.98;0.30;;;27.20;96.70;;;;;;5073323;28;20204;-80
2022/11/10 05:06:52;;;;;;;2.50;0.50;;;27.40;97.10;;;;;;5071325;28;20196;-80
2022/11/10 05:09:25;;;;;;;1.00;0.40;;;27.50;96.90;;;;;;5085448;28;20210;-80
2022/11/10 05:11:56;;;;;;;2.20;0.40;;;27.40;96.40;;;;;;5088408;28;20203;-79
2022/11/10 05:14:26;;;;;;;1.88;0.50;;;27.50;97.60;;;;;;5090751;28;20195;-79
2022/11/10 05:16:57;;;;;;;2.55;0.50;;;27.90;97.20;;;;;;5086105;28;20191;-80
2022/11/10 05:19:28;;;;;;;4.28;0.55;;;28.00;97.20;;;;;;5090709;28;20524;-79
2022/11/10 05:22:01;;;;;;;1.80;0.30;;;28.30;96.30;;;;;;5091059;28;20234;-80
2022/11/10 05:24:35;;;;;;;1.27;0.40;;;28.10;96.30;;;;;;5090738;28;20573;-80
2022/11/10 05:27:07;;;;;;;1.02;0.50;;;28.20;95.40;;;;;;5090686;28;20196;-79
2022/11/10 05:29:37;;;;;;;3.10;0.45;;;28.10;95.60;;;;;;5091568;28;20248;-80
2022/11/10 05:32:08;;;;;;;2.35;0.60;;;28.10;95.00;;;;;;5098142;28;20219;-79
2022/11/10 05:34:40;;;;;;;1.25;0.40;;;28.30;95.00;;;;;;5091842;28;20286;-80
2022/11/10 05:37:10;;;;;;;2.78;0.60;;;28.30;94.50;;;;;;5090442;28;20221;-80
2022/11/10 05:39:43;;;;;;;2.28;0.50;;;28.20;96.00;;;;;;5090369;28;20191;-80
2022/11/10 05:42:14;;;;;;;3.05;0.60;;;28.20;95.10;;;;;;5090069;28;20234;-81
2022/11/10 05:44:45;;;;;;;2.78;0.40;;;28.20;95.60;;;;;;5089680;28;20305;-79
2022/11/10 05:47:16;;;;;;;2.30;0.40;;;28.20;94.40;;;;;;5089329;28;20198;-79
2022/11/10 05:49:47;;;;;;;4.88;0.60;;;28.40;94.80;;;;;;5086957;28;20244;-79
2022/11/10 05:52:17;;;;;;;2.40;0.50;;;28.70;94.60;;;;;;5079739;28;20306;-79
2022/11/10 05:54:50;;;;;;;2.85;0.50;;;29.10;93.30;;;;;;5089933;28;20215;-80
2022/11/10 05:57:21;;;;;;;2.50;0.40;;;29.10;93.60;;;;;;5089878;28;20196;-80
2022/11/10 05:59:52;;;;;;;2.33;0.50;;;29.60;92.50;;;;;;5089558;28;20268;-79
2022/11/10 06:02:23;;;;;;;2.78;0.50;;;29.60;91.50;;;;;;5089513;28;20215;-79
2022/11/10 06:04:54;;;;;;;4.22;0.50;;;29.90;90.00;;;;;;5089951;28;20196;-79
2022/11/10 06:07:24;;;;;;;1.17;0.50;;;29.40;89.70;;;;;;5089117;28;20207;-79
2022/11/10 06:09:57;;;;;;;0.60;0.28;;;29.30;90.40;;;;;;5089851;28;20684;-79
2022/11/10 06:12:29;;;;;;;2.45;0.47;;;29.40;88.10;;;;;;5092082;28;20211;-79
2022/11/10 06:14:59;;;;;;;2.03;0.50;;;29.10;90.50;;;;;;5093138;28;20679;-80
2022/11/10 06:17:30;;;;;;;3.97;0.63;;;29.00;91.40;;;;;;5093146;28;20221;-79
2022/11/10 06:20:01;;;;;;;2.78;0.50;;;29.40;90.30;;;;;;5093601;28;20680;-79
2022/11/10 06:22:33;;;;;;;5.10;0.70;;;29.50;89.10;;;;;;5093111;28;20728;-79
2022/11/10 06:25:06;;;;;;;2.35;0.60;;;29.60;90.00;;;;;;5089451;28;20218;-79
2022/11/10 06:27:36;;;;;;;2.65;0.47;;;29.60;89.60;;;;;;5094065;28;20199;-79
2022/11/10 06:30:08;;;;;;;3.33;0.70;;;29.70;88.10;;;;;;5094836;28;20207;-80
2022/11/10 06:32:39;;;;;;;2.42;0.52;;;29.70;89.10;;;;;;5093567;28;20669;-80
2022/11/10 06:35:10;;;;;;;1.30;0.50;;;29.70;89.40;;;;;;5102791;28;20198;-80
2022/11/10 06:37:41;;;;;;;2.25;0.60;;;29.80;88.40;;;;;;5094852;28;20195;-80
2022/11/10 06:40:16;;;;;;;1.00;0.40;;;29.60;89.40;;;;;;5092921;28;20207;-80
2022/11/10 06:42:47;;;;;;;1.13;0.40;;;29.60;90.00;;;;;;5091926;28;20249;-80
2022/11/10 06:45:18;;;;;;;1.90;0.63;;;29.60;89.40;;;;;;5093260;28;20197;-80
2022/11/10 06:47:49;;;;;;;1.90;0.52;;;29.80;86.60;;;;;;5097168;28;20612;-80
2022/11/10 06:50:20;;;;;;;5.47;0.60;;;29.70;88.70;;;;;;5090105;28;20196;-80
2022/11/10 06:52:57;;;;;;;3.65;0.60;;;29.70;88.40;;;;;;5100724;28;20248;-81
2022/11/10 06:55:30;;;;;;;2.30;0.60;;;29.70;87.10;;;;;;5092784;28;20586;-80
2022/11/10 06:58:01;;;;;;;2.03;0.50;;;29.80;87.20;;;;;;5092621;28;20218;-79
2022/11/10 07:00:32;;;;;;;1.35;0.43;;;29.80;89.10;;;;;;5091184;28;20198;-80
2022/11/10 07:03:04;;;;;;;1.33;0.50;;;29.80;88.40;;;;;;5092722;28;20231;-80
2022/11/10 07:05:36;;;;;;;3.72;0.45;;;29.80;86.00;;;;;;5093085;28;20197;-80
2022/11/10 07:08:08;;;;;;;1.20;0.40;;;29.80;84.60;;;;;;5092763;28;20192;-80
2022/11/10 07:10:41;;;;;;;1.00;0.35;;;29.90;83.80;;;;;;5092681;28;20203;-80
2022/11/10 07:13:14;;;;;;;1.48;0.60;;;29.90;85.20;;;;;;5092361;28;20203;-80
2022/11/10 07:15:44;;;;;;;1.58;0.55;;;29.80;86.00;;;;;;5092007;28;20198;-80
2022/11/10 07:18:16;;;;;;;0.70;0.45;;;29.40;88.30;;;;;;5090418;28;20203;-80
2022/11/10 07:20:47;;;;;;;1.63;0.50;;;29.40;87.40;;;;;;5092645;28;20646;-80
2022/11/10 07:23:18;;;;;;;2.28;0.70;;;29.20;88.40;;;;;;5091340;28;20269;-80
2022/11/10 07:25:50;;;;;;;1.83;0.50;;;29.30;88.30;;;;;;5092231;28;20199;-80
2022/11/10 07:28:22;;;;;;;2.25;0.60;;;29.00;90.00;;;;;;5092475;28;20662;-80
2022/11/10 07:30:53;;;;;;;3.95;0.82;;;28.70;90.80;;;;;;5091658;28;20205;-80
2022/11/10 07:33:24;;;;;;;7.05;0.80;;;28.30;91.40;;;;;;5091850;28;20195;-79
2022/11/10 07:35:57;;;;;;;4.22;0.80;;;27.80;93.00;;;;;;5073024;28;20229;-80
2022/11/10 07:38:28;;;;;;;2.17;0.50;;;27.00;94.20;;;;;;5080786;28;20195;-80
2022/11/10 07:41:00;;;;;;;2.35;0.60;;;26.30;95.80;;;;;;5072084;28;20243;-79
2022/11/10 07:43:31;;;;;;;2.30;0.60;;;26.00;97.80;;;;;;5081926;28;20203;-80
2022/11/10 07:46:02;;;;;;;3.60;0.57;;;25.70;98.80;;;;;;5091794;28;20199;-80
2022/11/10 07:48:33;;;;;;;2.08;0.55;;;25.30;99.90;;;;;;5092338;28;20199;-80
2022/11/10 07:51:03;;;;;;;5.03;0.80;;;25.00;99.90;;;;;;5091482;28;20544;-80
2022/11/10 07:53:35;;;;;;;5.32;0.60;;;24.60;99.90;;;;;;5093958;28;20221;-80
2022/11/10 07:56:08;;;;;;;1.85;0.70;;;24.50;99.90;;;;;;5095769;28;20219;-80
2022/11/10 07:58:38;;;;;;;3.22;0.60;;;24.30;99.90;;;;;;5093755;28;20263;-80
2022/11/10 08:01:09;;;;;;;2.65;0.80;;;24.10;99.90;;;;;;5094390;28;20634;-80
2022/11/10 08:03:40;;;;;;;3.33;0.90;;;24.00;99.90;;;;;;5094767;28;20741;-80
2022/11/10 08:06:11;;;;;;;1.30;0.57;;;23.80;99.90;;;;;;5094702;28;20667;-80
2022/11/10 08:08:42;;;;;;;1.48;0.52;;;23.50;99.90;;;;;;5091302;28;20278;-80
2022/11/10 08:11:15;;;;;;;3.22;0.90;;;23.40;99.90;;;;;;5091294;28;20195;-80
2022/11/10 08:13:46;;;;;;;2.65;0.75;;;23.20;99.90;;;;;;5091220;28;20537;-80
2022/11/10 08:16:17;;;;;;;3.15;0.50;;;23.20;99.90;;;;;;5091080;28;20203;-80
2022/11/10 08:18:48;;;;;;;2.53;0.80;;;23.00;99.90;;;;;;5090910;28;20203;-80
2022/11/10 08:21:19;;;;;;;3.53;0.75;;;23.00;99.90;;;;;;5090907;28;20573;-80
2022/11/10 08:23:49;;;;;;;2.85;0.95;;;22.80;99.90;;;;;;5091169;28;20195;-79
2022/11/10 08:26:22;;;;;;;4.05;0.75;;;22.80;99.90;;;;;;5090483;28;20569;-80
2022/11/10 08:28:53;;;;;;;2.35;0.68;;;22.80;99.90;;;;;;5091004;28;20207;-80
2022/11/10 08:31:24;;;;;;;3.47;0.98;;;22.80;99.90;;;;;;5082564;28;20615;-80
2022/11/10 08:33:56;;;;;;;2.35;0.60;;;22.70;99.90;;;;;;5091042;28;20203;-79
2022/11/10 08:36:27;;;;;;;2.90;1.00;;;22.70;99.90;;;;;;5091131;28;20191;-80
2022/11/10 08:38:58;;;;;;;2.35;0.88;;;22.60;99.90;;;;;;5093898;28;20191;-80
2022/11/10 08:41:30;;;;;;;3.60;0.85;;;22.60;99.90;;;;;;5091579;28;20429;-80
2022/11/10 08:44:01;;;;;;;2.70;0.77;;;22.60;99.90;;;;;;5091237;28;20195;-80
2022/11/10 08:46:32;;;;;;;3.28;0.88;;;22.50;99.90;;;;;;5090675;28;20201;-80
2022/11/10 08:49:03;;;;;;;2.80;0.80;;;22.40;99.90;;;;;;5090868;28;20602;-80
2022/11/10 08:51:34;;;;;;;3.17;0.95;;;22.50;99.90;;;;;;5091056;28;20207;-80
2022/11/10 08:54:05;;;;;;;4.13;1.08;;;22.50;99.90;;;;;;5091355;28;20256;-80
2022/11/10 08:56:39;;;;;;;2.22;0.85;;;22.50;99.90;;;;;;5091121;28;20240;-80
2022/11/10 08:59:11;;;;;;;2.75;0.80;;;22.40;99.90;;;;;;5084155;28;20196;-80
2022/11/10 09:01:43;;;;;;;1.20;0.50;;;22.30;99.90;;;;;;5095564;28;20198;-80
2022/11/10 09:04:15;;;;;;;2.15;0.75;;;22.20;99.90;;;;;;5089526;28;20622;-80
2022/11/10 09:06:56;;;;;;;2.28;0.77;;;22.20;99.90;;;;;;5077828;28;20196;-81
2022/11/10 09:09:28;;;;;;;3.35;0.90;;;22.20;99.90;;;;;;5094981;28;20669;-80
2022/11/10 09:12:00;;;;;;;1.67;0.57;;;22.20;99.90;;;;;;5095608;28;20209;-80
2022/11/10 09:14:31;;;;;;;1.63;0.55;;;22.00;99.90;;;;;;5093615;28;20199;-81
2022/11/10 09:17:02;;;;;;;2.20;0.80;;;22.00;99.90;;;;;;5092053;28;20285;-80
2022/11/10 09:19:33;;;;;;;1.98;0.60;;;21.90;99.90;;;;;;5095498;28;20646;-79
2022/11/10 09:22:04;;;;;;;2.65;0.80;;;22.00;99.90;;;;;;5096228;28;20233;-79
2022/11/10 09:24:35;;;;;;;2.15;0.70;;;22.00;99.90;;;;;;5098745;28;20202;-79
2022/11/10 09:27:10;;;;;;;5.45;0.88;;;22.00;99.90;;;;;;5095311;28;20256;-78
2022/11/10 09:29:41;;;;;;;2.20;0.68;;;22.00;99.90;;;;;;5094094;28;20198;-79
2022/11/10 09:32:11;;;;;;;2.33;0.57;;;22.00;99.90;;;;;;5080331;28;20196;-80
2022/11/10 09:34:43;;;;;;;1.90;0.70;;;21.90;99.90;;;;;;5093348;28;20283;-80
2022/11/10 09:37:14;;;;;;;1.17;0.50;;;21.90;99.90;;;;;;5082524;28;20199;-80
2022/11/10 09:39:45;;;;;;;3.88;0.70;;;21.80;99.90;;;;;;5074849;28;20255;-80
2022/11/10 09:42:32;;;;;;;1.08;0.65;;;21.90;99.90;;;;;;5088010;28;20695;-80
2022/11/10 09:45:09;;;;;;;2.33;0.80;;;21.80;99.90;;;;;;5101515;28;20309;-79
2022/11/10 09:47:47;;;;;;;2.83;0.90;;;21.80;99.90;;;;;;5092057;28;20642;-80
2022/11/10 09:50:23;;;;;;;4.78;0.82;;;21.80;99.90;;;;;;5095506;28;20201;-80
2022/11/10 09:52:56;;;;;;;2.88;0.70;;;21.80;99.90;;;;;;5099075;28;20562;-79
2022/11/10 09:55:36;;;;;;;1.83;0.50;;;21.80;99.90;;;;;;5097370;28;20234;-79
2022/11/10 09:58:11;;;;;;;4.63;0.65;;;21.80;99.90;;;;;;5098462;28;20205;-79
2022/11/10 10:00:44;;;;;;;1.80;0.70;;;21.70;99.90;;;;;;5095796;28;20679;-79
2022/11/10 10:03:22;;;;;;;3.17;0.80;;;21.70;99.90;;;;;;5077578;28;20223;-80
2022/11/10 10:06:02;;;;;;;2.90;0.60;;;21.60;99.90;;;;;;5076014;28;20196;-80
2022/11/10 10:08:45;;;;;;;4.53;0.80;;;21.60;99.90;;;;;;5076465;28;20245;-80
2022/11/10 10:11:38;;;;;;;1.10;0.50;;;21.60;99.90;;;;;;5086600;28;20554;-80
2022/11/10 10:14:32;;;;;;;4.47;0.88;;;21.50;99.90;;;;;;5097843;28;20219;-80
2022/11/10 10:17:11;;;;;;;3.80;0.73;;;21.50;99.90;;;;;;5097033;28;20535;-80
2022/11/10 10:19:49;;;;;;;4.93;0.90;;;21.40;99.90;;;;;;5088488;28;20196;-80
2022/11/10 10:22:51;;;;;;;2.50;0.52;;;21.40;99.90;;;;;;5086990;28;20219;-80
2022/11/10 10:25:27;;;;;;;2.72;0.75;;;21.50;99.90;;;;;;5097277;28;20212;-79
2022/11/10 10:28:07;;;;;;;1.05;0.57;;;21.50;99.90;;;;;;5097347;28;20823;-81
2022/11/10 10:30:42;;;;;;;2.42;0.77;;;21.40;99.90;;;;;;5096673;28;20281;-81
2022/11/10 10:33:18;;;;;;;1.25;0.50;;;21.50;99.90;;;;;;5087592;28;20194;-81
2022/11/10 10:35:52;;;;;;;2.30;0.80;;;21.50;99.90;;;;;;5096895;28;20213;-81
2022/11/10 10:38:28;;;;;;;3.15;0.60;;;21.50;99.90;;;;;;5096917;28;20183;-80
2022/11/10 10:41:04;;;;;;;2.50;0.52;;;21.50;99.90;;;;;;5096373;28;20227;-80
2022/11/10 10:43:36;;;;;;;2.30;0.77;;;21.40;99.90;;;;;;5102070;28;20227;-80
2022/11/10 10:46:11;;;;;;;2.58;0.70;;;21.40;99.90;;;;;;5098951;28;20347;-81
2022/11/10 10:48:43;;;;;;;1.73;0.70;;;21.40;99.90;;;;;;5094908;28;20244;-78
2022/11/10 10:51:28;;;;;;;3.10;0.80;;;21.40;99.90;;;;;;5092967;28;20307;-79
2022/11/10 10:53:59;;;;;;;1.55;0.50;;;21.40;99.90;;;;;;5097737;28;20637;-79
2022/11/10 10:56:33;;;;;;;2.78;0.80;;;21.40;99.90;;;;;;5096955;28;20195;-78
2022/11/10 10:59:07;;;;;;;3.83;0.75;;;21.40;99.90;;;;;;5095817;28;20285;-78
2022/11/10 11:01:44;;;;;;;1.73;0.70;;;21.40;99.90;;;;;;5093766;28;20197;-80
2022/11/10 11:04:31;;;;;;;3.13;1.17;;;21.30;99.90;;;;;;5094877;28;20233;-79
2022/11/10 11:07:04;;;;;;;2.00;0.50;;;21.30;99.90;;;;;;5095198;28;20195;-80
2022/11/10 11:09:43;;;;;;;1.75;0.63;;;21.20;99.90;;;;;;5091940;28;20298;-80
2022/11/10 11:12:27;;;;;;;2.60;0.50;;;21.30;99.90;;;;;;5095062;28;20195;-82
2022/11/10 11:15:15;;;;;;;2.30;0.65;;;21.20;99.90;;;;;;5089898;28;20286;-80
2022/11/10 11:17:57;;;;;;;0.75;0.43;;;21.20;99.90;;;;;;5094466;28;20199;-80
2022/11/10 11:20:43;;;;;;;3.55;0.60;;;21.20;99.90;;;;;;5097242;28;20203;-80
2022/11/10 11:23:33;;;;;;;2.40;0.60;;;21.30;99.90;;;;;;5093486;28;20222;-80
2022/11/10 11:26:11;;;;;;;3.05;0.63;;;21.20;99.90;;;;;;5072903;28;20199;-80
2022/11/10 11:28:50;;;;;;;3.78;0.60;;;21.20;99.90;;;;;;5071286;28;20191;-80
2022/11/10 11:31:30;;;;;;;3.65;0.88;;;21.20;99.90;;;;;;5074482;28;20198;-79
2022/11/10 11:34:11;;;;;;;1.70;0.60;;;21.20;99.90;;;;;;5072099;28;20207;-80
2022/11/10 11:36:50;;;;;;;2.03;0.55;;;21.10;99.90;;;;;;5081328;28;20195;-80
2022/11/10 11:39:34;;;;;;;2.97;0.40;;;21.10;99.90;;;;;;5090157;28;20191;-80
2022/11/10 11:42:17;;;;;;;1.63;0.60;;;21.10;99.90;;;;;;5087861;28;20241;-80
2022/11/10 11:45:02;;;;;;;2.55;0.57;;;21.10;99.90;;;;;;5091743;28;20195;-80
2022/11/10 11:47:47;;;;;;;2.03;0.50;;;21.10;99.90;;;;;;5102137;28;20195;-80
2022/11/10 11:50:31;;;;;;;3.92;0.82;;;21.10;99.90;;;;;;5096001;28;20195;-80
2022/11/10 11:53:16;;;;;;;3.95;0.65;;;21.00;99.90;;;;;;5094644;28;20740;-79
2022/11/10 11:56:07;;;;;;;2.63;0.68;;;21.00;99.90;;;;;;5093717;28;20233;-78
2022/11/10 11:58:47;;;;;;;2.22;0.70;;;21.00;99.90;;;;;;5096736;28;20282;-79
2022/11/10 12:01:32;;;;;;;2.97;0.80;;;21.00;99.90;;;;;;5096517;28;20254;-79
2022/11/10 12:04:32;;;;;;;3.13;0.65;;;21.00;99.90;;;;;;5088317;28;20219;-80
2022/11/10 12:07:21;;;;;;;1.27;0.40;;;20.90;99.90;;;;;;5091227;28;20195;-80
2022/11/10 12:09:55;;;;;;;3.50;0.60;;;21.00;99.90;;;;;;5087637;28;20194;-81
2022/11/10 12:12:53;;;;;;;1.98;0.55;;;21.00;99.90;;;;;;5083506;28;20195;-80
2022/11/10 12:15:34;;;;;;;4.05;0.60;;;21.00;99.90;;;;;;5085015;28;20191;-80
2022/11/10 12:18:14;;;;;;;3.20;0.63;;;20.90;99.90;;;;;;5092841;28;20207;-80
2022/11/10 12:20:56;;;;;;;1.60;0.60;;;20.90;99.90;;;;;;5091781;28;20197;-79
2022/11/10 12:23:36;;;;;;;3.15;0.60;;;20.90;99.90;;;;;;5090411;28;20302;-80
2022/11/10 12:26:20;;;;;;;3.28;0.50;;;20.90;99.90;;;;;;5092183;28;20670;-80
2022/11/10 12:28:55;;;;;;;3.05;0.52;;;20.90;99.90;;;;;;5088969;28;20195;-80
2022/11/10 12:31:30;;;;;;;3.17;0.57;;;20.90;99.90;;;;;;5089146;28;20195;-80
2022/11/10 12:34:05;;;;;;;2.53;0.60;;;20.80;99.90;;;;;;5087828;28;20194;-80
2022/11/10 12:36:36;;;;;;;1.75;0.40;;;20.80;99.90;;;;;;5086194;28;20194;-80
2022/11/10 12:39:19;;;;;;;1.45;0.47;;;20.80;99.90;;;;;;5075028;28;20199;-80
2022/11/10 12:41:54;;;;;;;2.78;0.70;;;20.80;99.90;;;;;;5076169;28;20238;-80
2022/11/10 12:44:32;;;;;;;3.42;0.73;;;20.80;99.90;;;;;;5091712;28;20275;-79
2022/11/10 12:47:07;;;;;;;3.42;0.57;;;20.80;99.90;;;;;;5079985;28;20188;-79
2022/11/10 12:49:39;;;;;;;2.75;0.45;;;20.80;99.90;;;;;;5083020;28;20205;-80
2022/11/10 12:52:14;;;;;;;2.10;0.70;;;20.80;99.90;;;;;;5099537;28;20199;-80
2022/11/10 12:54:48;;;;;;;1.88;0.50;;;20.80;99.90;;;;;;5091700;28;20275;-79
2022/11/10 12:57:24;;;;;;;3.35;0.68;;;20.80;99.90;;;;;;5092098;28;20206;-80
2022/11/10 13:00:00;;;;;;;0.95;0.40;;;20.80;99.90;;;;;;5090165;28;20201;-80
2022/11/10 13:02:35;;;;;;;2.42;0.60;;;20.80;99.90;;;;;;5090806;28;20202;-80
2022/11/10 13:05:27;;;;;;;3.25;0.68;;;20.70;99.90;;;;;;5091004;28;20198;-80
2022/11/10 13:08:14;;;;;;;2.22;0.45;;;20.70;99.90;;;;;;5079123;28;20199;-82
2022/11/10 13:10:58;;;;;;;1.40;0.57;;;20.70;99.90;;;;;;5091428;28;20595;-80
2022/11/10 13:13:30;;;;;;;3.63;0.80;;;20.70;99.90;;;;;;5090358;28;20221;-80
2022/11/10 13:16:01;;;;;;;2.90;0.75;;;20.70;99.90;;;;;;5091312;28;20195;-81
2022/11/10 13:19:02;;;;;;;3.85;0.65;;;20.70;99.90;;;;;;5090716;28;20199;-81
2022/11/10 13:22:07;;;;;;;1.10;0.50;;;20.70;99.90;;;;;;5091300;28;20205;-80
2022/11/10 13:24:39;;;;;;;3.95;0.60;;;20.70;99.90;;;;;;5094444;28;20811;-80
2022/11/10 13:27:37;;;;;;;4.88;0.80;;;20.70;99.90;;;;;;5094534;28;20199;-79
2022/11/10 13:30:11;;;;;;;3.60;0.60;;;20.70;99.90;;;;;;5089349;28;20191;-81
2022/11/10 13:32:42;;;;;;;2.25;0.60;;;20.70;99.90;;;;;;5085942;28;20243;-80
2022/11/10 13:35:53;;;;;;;2.00;0.60;;;20.60;99.90;;;;;;5094180;28;20199;-80
2022/11/10 13:38:40;;;;;;;2.05;0.55;;;20.60;99.90;;;;;;5024010;28;20197;-79